Time;durP1;ratioP1;P1;durP2;ratioP2;P2;SDS_P1;SDS_P2;PMS_P1;PMS_P2;Temp;Humidity;BMP_temperature;BMP_pressure;BME280_temperature;BME280_humidity;BME280_pressure;Samples;Min_cycle;Max_cycle;Signal;HPM_P1;HPM_P2
2022/07/04 13:54:57;;;;;;;2.35;0.80;;;21.50;99.90;;;;;;6162829;22;1317784;-89
2022/07/04 13:57:39;;;;;;;1.83;0.63;;;21.60;99.90;;;;;;6231230;22;20015;-89
2022/07/04 14:00:10;;;;;;;2.97;0.68;;;21.60;99.90;;;;;;6180590;22;20020;-92
2022/07/04 14:02:36;;;;;;;2.90;0.80;;;21.60;99.90;;;;;;6230568;22;20047;-90
2022/07/04 14:05:05;;;;;;;2.67;0.50;;;21.50;99.90;;;;;;6201627;23;20327;-90
2022/07/04 14:07:33;;;;;;;1.15;0.50;;;21.40;99.90;;;;;;6253061;23;20008;-86
2022/07/04 14:09:59;;;;;;;1.20;0.60;;;21.40;99.90;;;;;;6199594;23;20023;-85
2022/07/04 14:12:32;;;;;;;1.92;0.80;;;21.40;99.90;;;;;;6224980;23;20008;-86
2022/07/04 14:14:59;;;;;;;3.35;0.77;;;21.20;99.90;;;;;;6251759;22;20018;-86
2022/07/04 14:17:25;;;;;;;2.28;0.80;;;20.90;99.90;;;;;;6225092;23;20015;-85
2022/07/04 14:19:54;;;;;;;1.77;0.70;;;21.10;99.90;;;;;;6224286;23;20012;-89
2022/07/04 14:22:26;;;;;;;1.33;0.57;;;21.30;99.90;;;;;;6224597;23;20016;-88
2022/07/04 14:24:52;;;;;;;2.28;0.73;;;21.40;99.90;;;;;;6250251;22;20015;-88
2022/07/04 14:27:37;;;;;;;2.70;0.80;;;21.50;99.90;;;;;;6224943;23;20016;-90
2022/07/04 14:30:06;;;;;;;2.10;0.70;;;21.60;99.90;;;;;;6222814;23;20015;-92
2022/07/04 14:32:51;;;;;;;;;;;;;;;;;;;;;
2022/07/04 14:35:22;;;;;;;3.40;0.95;;;21.50;99.90;;;;;;6225253;22;20074;-85
2022/07/04 14:37:48;;;;;;;3.13;0.73;;;21.50;99.90;;;;;;6248912;23;20334;-85
2022/07/04 14:40:14;;;;;;;3.25;0.70;;;21.40;99.90;;;;;;6223788;23;20012;-86
2022/07/04 14:42:45;;;;;;;1.92;0.60;;;21.50;99.90;;;;;;6250029;23;20015;-88
2022/07/04 14:45:16;;;;;;;1.77;0.68;;;21.50;99.90;;;;;;6199518;23;20026;-87
2022/07/04 14:47:42;;;;;;;2.83;0.60;;;21.50;99.90;;;;;;6221895;23;20012;-85
2022/07/04 14:50:08;;;;;;;2.40;0.60;;;21.50;99.90;;;;;;6223021;23;20019;-88
2022/07/04 14:52:54;;;;;;;2.95;0.50;;;21.60;99.90;;;;;;6223620;23;20016;-89
2022/07/04 14:55:20;;;;;;;1.75;0.50;;;21.50;99.00;;;;;;6190399;23;20082;-85
2022/07/04 14:57:48;;;;;;;1.75;0.68;;;21.40;99.30;;;;;;6222040;23;20012;-86
2022/07/04 15:00:15;;;;;;;3.15;0.55;;;21.50;99.80;;;;;;6223004;23;20023;-89
2022/07/04 15:02:40;;;;;;;2.53;0.60;;;21.60;98.50;;;;;;6222781;23;20084;-84
2022/07/04 15:05:07;;;;;;;1.50;0.60;;;21.60;99.30;;;;;;6222125;23;20016;-85
2022/07/04 15:07:38;;;;;;;1.65;0.50;;;21.50;99.20;;;;;;6221570;23;20069;-87
2022/07/04 15:10:07;;;;;;;2.72;0.70;;;21.50;99.00;;;;;;6249135;23;20015;-86
2022/07/04 15:12:33;;;;;;;3.00;0.70;;;21.50;99.70;;;;;;6222303;23;20369;-81
2022/07/04 15:14:59;;;;;;;2.03;0.60;;;21.50;99.40;;;;;;6249522;22;20319;-87
2022/07/04 15:17:24;;;;;;;4.25;0.80;;;21.50;99.20;;;;;;6250253;23;20062;-86
2022/07/04 15:25:19;;;;;;;2.08;0.75;;;21.50;99.90;;;;;;6248620;23;20020;-86
2022/07/04 15:27:45;;;;;;;2.58;0.80;;;21.20;99.90;;;;;;6222150;23;20016;-86
2022/07/04 15:30:11;;;;;;;2.13;0.73;;;21.10;99.90;;;;;;6197325;23;20027;-83
2022/07/04 15:32:36;;;;;;;1.50;0.60;;;21.10;99.90;;;;;;6222522;23;20034;-87
2022/07/04 15:35:05;;;;;;;5.93;1.08;;;20.90;99.90;;;;;;6248815;23;20087;-87
2022/07/04 15:37:31;;;;;;;3.40;1.35;;;21.10;99.90;;;;;;6197608;23;20472;-88
2022/07/04 15:40:06;;;;;;;2.55;0.80;;;21.10;99.90;;;;;;6221608;23;20020;-85
2022/07/04 15:42:31;;;;;;;2.45;0.70;;;20.90;99.90;;;;;;6196494;23;20334;-83
2022/07/04 15:44:57;;;;;;;2.00;0.73;;;20.80;99.90;;;;;;6222120;23;20016;-87
2022/07/04 15:47:23;;;;;;;3.90;0.82;;;20.70;99.90;;;;;;6222868;23;20008;-87
2022/07/04 15:49:48;;;;;;;2.70;1.13;;;20.70;99.90;;;;;;6222935;23;20040;-87
2022/07/04 15:52:14;;;;;;;2.22;0.70;;;20.50;99.90;;;;;;6223472;23;20008;-87
2022/07/04 15:54:40;;;;;;;1.80;0.70;;;20.40;99.90;;;;;;6222738;23;20027;-87
2022/07/04 15:57:06;;;;;;;1.98;0.60;;;20.60;99.90;;;;;;6249766;23;20012;-86
2022/07/04 15:59:32;;;;;;;3.45;1.00;;;20.80;99.90;;;;;;6224455;23;20070;-84
2022/07/04 16:01:58;;;;;;;3.22;0.85;;;21.00;99.90;;;;;;6224202;23;20019;-86
2022/07/04 16:04:23;;;;;;;2.05;0.60;;;21.00;99.90;;;;;;6250707;22;20031;-85
2022/07/04 16:06:49;;;;;;;3.47;0.57;;;20.70;99.90;;;;;;6224022;23;20012;-87
2022/07/04 16:09:15;;;;;;;1.35;0.60;;;20.70;99.90;;;;;;6250909;23;20043;-85
2022/07/04 16:11:41;;;;;;;2.70;0.70;;;21.00;99.90;;;;;;6224838;23;20020;-86
2022/07/04 16:14:07;;;;;;;3.03;0.68;;;21.20;99.90;;;;;;6250375;22;20507;-87
2022/07/04 16:16:34;;;;;;;4.38;1.02;;;21.10;99.90;;;;;;6223480;23;20027;-87
2022/07/04 16:19:00;;;;;;;2.55;0.60;;;21.20;99.90;;;;;;6249858;23;20450;-86
2022/07/04 16:21:26;;;;;;;2.13;0.70;;;21.30;99.90;;;;;;6223678;23;20430;-87
2022/07/04 16:23:52;;;;;;;2.05;0.80;;;21.30;99.90;;;;;;6250236;22;20015;-87
2022/07/04 16:26:18;;;;;;;3.85;1.40;;;21.40;99.90;;;;;;6249266;23;20330;-78
2022/07/04 16:28:43;;;;;;;4.18;1.75;;;21.30;99.90;;;;;;6249309;23;20060;-84
2022/07/04 16:31:09;;;;;;;3.00;1.13;;;21.00;99.90;;;;;;6222208;23;20027;-85
2022/07/04 16:33:35;;;;;;;3.67;1.42;;;20.80;99.90;;;;;;6222577;23;20023;-86
2022/07/04 16:36:00;;;;;;;8.38;3.53;;;20.90;99.90;;;;;;6223395;23;20039;-89
2022/07/04 16:38:26;;;;;;;16.05;7.65;;;20.90;99.90;;;;;;6252720;23;20008;-91
2022/07/04 16:40:51;;;;;;;3.75;1.60;;;21.00;99.90;;;;;;6198790;23;20404;-86
2022/07/04 16:43:17;;;;;;;7.50;4.05;;;20.70;99.90;;;;;;6223346;23;20088;-88
2022/07/04 16:45:43;;;;;;;4.38;2.17;;;20.90;99.90;;;;;;6225415;23;20012;-88
2022/07/04 16:48:09;;;;;;;7.90;2.08;;;21.00;99.90;;;;;;6249815;23;20468;-86
2022/07/04 16:50:36;;;;;;;3.30;0.70;;;21.00;99.90;;;;;;6249033;23;20076;-88
2022/07/04 16:53:03;;;;;;;1.98;0.60;;;21.00;99.90;;;;;;6199724;22;20039;-85
2022/07/04 16:55:29;;;;;;;1.40;0.57;;;21.00;99.90;;;;;;6249452;23;20018;-87
2022/07/04 16:57:54;;;;;;;2.97;0.70;;;20.80;99.90;;;;;;6199010;23;20035;-84
2022/07/04 17:00:20;;;;;;;3.70;0.73;;;20.90;99.90;;;;;;6223122;23;20095;-87
2022/07/04 17:02:46;;;;;;;3.63;0.60;;;20.70;99.90;;;;;;6223688;22;20493;-88
2022/07/04 17:05:12;;;;;;;5.07;0.90;;;20.80;99.90;;;;;;6222343;23;20090;-88
2022/07/04 17:07:37;;;;;;;2.35;0.80;;;20.70;99.90;;;;;;6250461;23;20500;-88
2022/07/04 17:10:14;;;;;;;2.00;0.88;;;20.70;99.90;;;;;;6249631;23;20074;-89
2022/07/04 17:12:42;;;;;;;2.88;0.60;;;20.70;99.90;;;;;;6222409;23;20020;-89
2022/07/04 17:15:09;;;;;;;2.08;0.60;;;20.80;99.90;;;;;;6222616;23;20016;-88
2022/07/04 17:17:34;;;;;;;2.85;0.77;;;20.90;99.90;;;;;;6223823;23;20040;-88
2022/07/04 17:20:09;;;;;;;2.08;0.80;;;20.70;99.90;;;;;;6249158;23;20054;-87
2022/07/04 17:22:36;;;;;;;1.45;0.50;;;20.80;99.90;;;;;;6224693;23;20008;-87
2022/07/04 17:25:05;;;;;;;3.85;0.50;;;20.80;99.90;;;;;;6223371;23;20036;-89
2022/07/04 17:27:31;;;;;;;2.22;0.63;;;20.80;99.90;;;;;;6249890;23;20016;-90
2022/07/04 17:29:57;;;;;;;2.13;0.63;;;20.60;99.90;;;;;;6225992;23;20050;-91
2022/07/04 17:32:23;;;;;;;2.08;0.57;;;20.50;99.90;;;;;;6222061;23;20162;-90
2022/07/04 17:34:48;;;;;;;3.50;0.90;;;20.40;99.90;;;;;;6223692;23;20008;-85
2022/07/04 17:37:14;;;;;;;1.67;0.70;;;20.40;99.90;;;;;;6251128;23;20012;-86
2022/07/04 17:39:41;;;;;;;2.42;0.70;;;20.40;99.90;;;;;;6196402;23;20051;-86
2022/07/04 17:42:06;;;;;;;3.45;0.73;;;20.40;99.90;;;;;;6249676;23;20079;-86
2022/07/04 17:44:32;;;;;;;1.80;0.60;;;20.40;99.90;;;;;;6221968;23;20345;-87
2022/07/04 17:46:58;;;;;;;3.08;1.05;;;20.50;99.90;;;;;;6222642;23;20138;-85
2022/07/04 17:49:24;;;;;;;2.25;0.60;;;20.60;99.90;;;;;;6222436;23;20019;-84
2022/07/04 17:51:49;;;;;;;1.65;0.43;;;20.40;99.90;;;;;;6222290;23;20016;-87
2022/07/04 17:54:15;;;;;;;1.88;0.60;;;20.50;99.90;;;;;;6249163;22;20008;-85
2022/07/04 17:56:41;;;;;;;2.17;0.65;;;20.40;99.90;;;;;;6222288;23;20016;-84
2022/07/04 17:59:07;;;;;;;2.00;0.70;;;20.50;99.90;;;;;;6223853;23;20327;-85
2022/07/04 18:01:32;;;;;;;1.48;0.60;;;20.30;99.90;;;;;;6197463;23;20091;-85
2022/07/04 18:03:58;;;;;;;2.40;0.70;;;20.20;99.90;;;;;;6223833;23;20012;-87
2022/07/04 18:06:25;;;;;;;2.83;0.52;;;20.20;99.90;;;;;;6223497;23;20014;-85
2022/07/04 18:08:51;;;;;;;2.78;0.60;;;20.20;99.90;;;;;;6227023;23;20019;-87
2022/07/04 18:11:18;;;;;;;3.42;0.90;;;20.20;99.90;;;;;;6210602;23;20016;-82
2022/07/04 18:13:44;;;;;;;1.92;0.80;;;20.20;99.90;;;;;;6236958;23;20027;-82
2022/07/04 18:16:11;;;;;;;5.30;0.70;;;20.10;99.90;;;;;;6226624;23;20015;-81
2022/07/04 18:18:37;;;;;;;2.78;0.80;;;20.10;99.90;;;;;;6223928;23;20036;-83
2022/07/04 18:21:04;;;;;;;0.98;0.50;;;20.00;99.90;;;;;;6250290;23;20369;-83
2022/07/04 18:23:30;;;;;;;2.95;0.90;;;20.00;99.90;;;;;;6221440;23;20040;-81
2022/07/04 18:25:57;;;;;;;2.55;0.82;;;20.00;99.90;;;;;;6196851;23;20019;-83
2022/07/04 18:28:22;;;;;;;1.67;0.82;;;19.90;99.90;;;;;;6221079;23;20015;-84
2022/07/04 18:30:48;;;;;;;1.92;0.82;;;19.80;99.90;;;;;;6220930;23;20430;-82
2022/07/04 18:33:14;;;;;;;1.85;0.90;;;19.60;99.90;;;;;;6220805;23;20020;-84
2022/07/04 18:35:43;;;;;;;3.13;1.05;;;19.60;99.90;;;;;;6220844;23;20023;-84
2022/07/04 18:38:10;;;;;;;4.00;0.90;;;19.50;99.90;;;;;;6221041;23;20016;-84
2022/07/04 18:43:29;;;;;;;6.03;1.00;;;19.40;99.90;;;;;;6220940;23;20342;-82
2022/07/04 18:45:57;;;;;;;1.85;0.90;;;19.30;99.90;;;;;;6248240;23;20015;-83
2022/07/04 18:48:24;;;;;;;2.75;0.98;;;19.30;99.90;;;;;;6220784;23;20019;-85
2022/07/04 18:50:50;;;;;;;2.30;0.98;;;19.20;99.90;;;;;;6221033;23;20115;-83
2022/07/04 18:53:17;;;;;;;1.65;0.85;;;19.10;99.90;;;;;;6221022;23;20066;-84
2022/07/04 18:55:43;;;;;;;2.17;1.08;;;19.00;99.90;;;;;;6220421;23;20015;-83
2022/07/04 18:58:09;;;;;;;3.20;0.88;;;19.00;99.90;;;;;;6220222;23;20380;-85
2022/07/04 19:00:35;;;;;;;2.00;1.00;;;18.90;99.90;;;;;;6247057;23;20083;-83
2022/07/04 19:03:00;;;;;;;3.80;1.25;;;18.80;99.90;;;;;;6220560;22;20092;-84
2022/07/04 19:05:27;;;;;;;2.88;1.00;;;18.70;99.90;;;;;;6220609;23;20023;-84
2022/07/04 19:07:53;;;;;;;4.60;1.20;;;18.60;99.90;;;;;;6221057;23;20073;-85
2022/07/04 19:10:19;;;;;;;2.90;1.10;;;18.50;99.90;;;;;;6247657;23;20020;-83
2022/07/04 19:12:45;;;;;;;3.60;1.20;;;18.50;99.90;;;;;;6247527;22;20012;-85
2022/07/04 19:15:12;;;;;;;3.13;1.00;;;18.40;99.90;;;;;;6247484;23;20406;-85
2022/07/04 19:17:39;;;;;;;4.03;1.20;;;18.40;99.90;;;;;;6220728;23;20015;-84
2022/07/04 19:20:06;;;;;;;4.43;1.25;;;18.30;99.90;;;;;;6246789;23;20086;-83
2022/07/04 19:22:34;;;;;;;3.67;1.30;;;18.20;99.90;;;;;;6221162;23;20079;-83
2022/07/04 19:25:00;;;;;;;2.92;1.40;;;18.10;99.90;;;;;;6247813;22;20048;-84
2022/07/04 19:27:26;;;;;;;3.78;1.30;;;18.10;99.90;;;;;;6220539;23;20082;-84
2022/07/04 19:29:52;;;;;;;4.32;1.48;;;18.10;99.90;;;;;;6247963;23;20043;-84
2022/07/04 19:32:20;;;;;;;3.17;1.50;;;18.00;99.90;;;;;;6221066;23;20476;-81
2022/07/04 19:34:46;;;;;;;5.32;1.60;;;17.90;99.90;;;;;;6219549;23;20023;-82
2022/07/04 19:37:12;;;;;;;4.60;1.73;;;17.90;99.90;;;;;;6247022;23;20000;-84
2022/07/04 19:39:38;;;;;;;3.97;1.42;;;17.80;99.90;;;;;;6220718;23;20020;-85
2022/07/04 19:42:04;;;;;;;5.00;1.88;;;17.80;99.90;;;;;;6195132;23;20015;-87
2022/07/04 19:44:30;;;;;;;5.68;2.10;;;17.70;99.90;;;;;;6220424;23;20311;-84
2022/07/04 19:46:56;;;;;;;5.05;1.55;;;17.70;99.90;;;;;;6247845;23;20011;-84
2022/07/04 19:49:24;;;;;;;6.45;2.10;;;17.70;99.90;;;;;;6220871;23;20138;-85
2022/07/04 19:54:37;;;;;;;3.45;1.77;;;17.50;99.90;;;;;;6220319;23;20113;-84
2022/07/04 19:57:03;;;;;;;4.68;1.70;;;17.40;99.90;;;;;;6220627;23;20012;-84
2022/07/04 19:59:29;;;;;;;3.22;1.80;;;17.30;99.90;;;;;;6220732;23;20027;-85
2022/07/04 20:01:54;;;;;;;6.15;1.90;;;17.30;99.90;;;;;;6220968;23;20012;-85
2022/07/04 20:04:20;;;;;;;4.72;2.17;;;17.30;99.90;;;;;;6220562;23;20009;-87
2022/07/04 20:06:46;;;;;;;4.00;2.00;;;17.30;99.90;;;;;;6220264;23;20019;-85
2022/07/04 20:09:12;;;;;;;4.25;1.90;;;17.30;99.90;;;;;;6220108;23;20796;-88
2022/07/04 20:11:37;;;;;;;6.13;1.90;;;17.30;99.90;;;;;;6219043;23;20016;-88
2022/07/04 20:14:03;;;;;;;5.18;2.20;;;17.30;99.90;;;;;;6218970;23;20342;-85
2022/07/04 20:16:29;;;;;;;5.15;2.17;;;17.20;99.90;;;;;;6219134;23;20042;-83
2022/07/04 20:18:58;;;;;;;5.97;2.10;;;17.10;99.90;;;;;;6219494;23;20012;-86
2022/07/04 20:21:23;;;;;;;5.18;2.15;;;17.10;99.90;;;;;;6219074;23;20454;-86
2022/07/04 20:23:49;;;;;;;5.20;2.17;;;17.10;99.90;;;;;;6219483;23;20012;-82
2022/07/04 20:26:15;;;;;;;4.88;2.45;;;17.00;99.90;;;;;;6219750;23;20043;-85
2022/07/04 20:28:40;;;;;;;3.28;2.42;;;16.90;99.90;;;;;;6219277;23;19996;-84
2022/07/04 20:31:06;;;;;;;5.07;2.55;;;16.90;99.90;;;;;;6219442;23;20504;-85
2022/07/04 20:33:33;;;;;;;8.00;2.40;;;16.80;99.90;;;;;;6219039;23;20051;-85
2022/07/04 20:35:58;;;;;;;8.70;3.15;;;16.80;99.90;;;;;;6219015;23;20012;-84
2022/07/04 20:38:24;;;;;;;5.47;2.10;;;16.80;99.90;;;;;;6246409;23;20118;-83
2022/07/04 20:40:50;;;;;;;4.32;2.13;;;16.80;99.90;;;;;;6246470;23;20008;-86
2022/07/04 20:43:16;;;;;;;7.28;2.40;;;16.80;99.90;;;;;;6219934;23;20035;-84
2022/07/04 20:45:42;;;;;;;6.40;2.28;;;16.70;99.90;;;;;;6248026;23;20016;-84
2022/07/04 20:48:08;;;;;;;4.38;2.13;;;16.70;99.90;;;;;;6247937;23;20008;-85
2022/07/04 20:50:34;;;;;;;4.20;2.40;;;16.70;99.90;;;;;;6221335;23;20016;-83
2022/07/04 20:53:00;;;;;;;5.38;2.67;;;16.70;99.90;;;;;;6195768;22;20044;-85
2022/07/04 20:55:26;;;;;;;4.40;1.80;;;16.70;99.90;;;;;;6248686;23;20462;-84
2022/07/04 20:57:52;;;;;;;4.88;2.33;;;16.70;99.90;;;;;;6195926;23;20442;-85
2022/07/04 21:00:17;;;;;;;3.03;1.88;;;16.60;99.90;;;;;;6222011;23;20070;-85
2022/07/04 21:02:43;;;;;;;3.65;1.83;;;16.60;99.90;;;;;;6248943;23;20012;-85
2022/07/04 21:05:10;;;;;;;4.35;1.48;;;16.50;99.90;;;;;;6196689;23;20012;-85
2022/07/04 21:07:36;;;;;;;5.63;2.45;;;16.50;99.90;;;;;;6221465;23;20008;-82
2022/07/04 21:10:03;;;;;;;5.40;1.80;;;16.40;99.90;;;;;;6222250;23;20427;-86
2022/07/04 21:12:28;;;;;;;7.70;2.00;;;16.30;99.90;;;;;;6221555;23;20027;-85
2022/07/04 21:14:54;;;;;;;5.47;2.00;;;16.30;99.90;;;;;;6248628;22;20331;-85
2022/07/04 21:17:20;;;;;;;3.10;1.70;;;16.30;99.90;;;;;;6196251;23;20066;-82
2022/07/04 21:19:45;;;;;;;3.65;1.90;;;16.20;99.90;;;;;;6221008;23;20014;-84
2022/07/04 21:22:15;;;;;;;5.93;2.30;;;16.20;99.90;;;;;;6221694;23;20012;-85
2022/07/04 21:24:41;;;;;;;4.60;2.00;;;16.20;99.90;;;;;;6221354;23;20084;-85
2022/07/04 21:27:06;;;;;;;3.90;1.95;;;16.10;99.90;;;;;;6221688;23;20129;-85
2022/07/04 21:29:32;;;;;;;2.92;1.65;;;16.10;99.90;;;;;;6221732;23;20087;-86
2022/07/04 21:31:58;;;;;;;4.32;1.60;;;16.10;99.90;;;;;;6221514;23;20090;-84
2022/07/04 21:34:23;;;;;;;5.95;1.67;;;16.00;99.90;;;;;;6221241;23;20012;-85
2022/07/04 21:36:49;;;;;;;4.97;1.90;;;16.00;99.90;;;;;;6221510;23;20342;-85
2022/07/04 21:39:15;;;;;;;4.03;2.10;;;16.00;99.90;;;;;;6221405;23;20046;-84
2022/07/04 21:41:40;;;;;;;3.15;1.60;;;16.00;99.90;;;;;;6220647;23;20008;-85
2022/07/04 21:44:06;;;;;;;3.53;2.00;;;15.90;99.90;;;;;;6221250;23;20334;-83
2022/07/04 21:46:32;;;;;;;3.28;1.90;;;15.90;99.90;;;;;;6196264;23;20346;-85
2022/07/04 21:49:00;;;;;;;4.18;1.85;;;15.90;99.90;;;;;;6219116;23;20026;-85
2022/07/04 21:51:26;;;;;;;3.75;1.77;;;15.80;99.90;;;;;;6246120;23;20012;-84
2022/07/04 21:53:52;;;;;;;3.58;1.77;;;15.80;99.90;;;;;;6220903;23;20016;-82
2022/07/04 21:56:18;;;;;;;5.07;1.88;;;15.80;99.90;;;;;;6220740;23;20043;-83
2022/07/04 21:58:44;;;;;;;4.30;1.88;;;15.80;99.90;;;;;;6221287;23;20011;-84
2022/07/04 22:01:10;;;;;;;4.00;2.00;;;15.70;99.90;;;;;;6221293;23;20012;-84
2022/07/04 22:03:36;;;;;;;3.05;1.98;;;15.70;99.90;;;;;;6220945;23;20016;-84
2022/07/04 22:06:01;;;;;;;4.00;1.95;;;15.70;99.90;;;;;;6220925;23;20437;-83
2022/07/04 22:08:27;;;;;;;4.82;2.53;;;15.70;99.90;;;;;;6220951;23;20015;-84
2022/07/04 22:10:53;;;;;;;5.70;2.00;;;15.70;99.90;;;;;;6220810;23;20039;-84
2022/07/04 22:13:29;;;;;;;5.28;2.40;;;15.70;99.90;;;;;;6220664;23;20020;-84
